Aérodrome :
LOGIN :

S'inscrire | Disclaimer

   EN    FR    IT 

 










Légende :    VFR   VFR Marginal   IFR   IFR Intensif   IFR Très Intensif
Visi : 
Plafond : 
>= 8 km
>= 3000ft
5 à 8 km
1000 à 3000 ft
1500m à 5 km
500 à 1000 ft
800 à 1500m
200 à 500 ft
< 800m
< 200 ft
Symboles :   Orages  Brouillard  Fortes neiges  Fortes précipitations  Vent > 20 kt
SIGMETs :   Divers  Orages  Givrage  Turbulence  Onde Orograph.  Cendres Volcan.







- Altitude de l'aérodrome : 512 ft
- Code IATA : URO
- Voir les cartes d'approche


LFOP - Rouen Vallée de Seine

DERNIER METAR :
  • 171500Z AUTO 25007KT 220V290 9999 FEW024 BKN060 22/18 Q1016 TEMPO 3000 SHRA BKN010 BKN020CB

METARs EXPIRÉS :
  • 171430Z AUTO 26006KT 9999 FEW024/// BKN045/// BKN064/// ///TCU 20/18 Q1016 TEMPO 3000 SHRA BKN010 BKN020CB
  • 171400Z AUTO 26010KT 6000 -RA FEW009/// BKN019/// OVC024/// ///TCU 19/18 Q1016 TEMPO 3000 SHRA BKN010 BKN020CB
  • 171330Z AUTO 30009KT 260V320 9999 RA FEW010/// SCT016/// BKN022/// ///CB 20/17 Q1016 TEMPO 3000 SHRA BKN010 BKN020CB
  • 171300Z AUTO 22012KT 9999 SCT017/// BKN023/// BKN030/// ///CB 21/17 Q1016 TEMPO 3000 SHRA BKN010 BKN020CB
  • 171230Z AUTO 22012KT 9999 BKN016/// BKN037/// BKN066/// ///CB 22/18 Q1016 TEMPO 3000 SHRA BKN010 BKN020CB

TAF TAF LFOP
Valide du 17 à 12h jusqu'au 18 à 12h UTC


171100Z 1712/1812 24012KT 9999 BKN020
TEMPO 1712/1808 3000 SHRA BKN010 BKN020CB
ATIS : +33 2 35 80 80 34
Météo : +33 2 32 86 52 80
Pas de NOTAMs connus pour ce terrain.



MET'MAP, la Météo Aéronautique d'un coup d'oeil ! - Copyright ORBIFLY Décembre 2007 - Disclaimer

ORBIFLY MET'MAP TEAM :

Programmation & Développement : Alexandra Zaïnal
Conception & Développement : Baudouin d'Aumeries
Co-Programmation & Développement : Marc-Olivier Méhu
Soutien technique & logistique : Manuel Goepfert

Contact : metmap@orbifly.com




SOURCES & CREDITS :

   NOAA